createdAt,value
2023-01-11T00:00:06.888Z,4.12
2023-01-11T00:00:20.487Z,4.12
2023-01-11T00:00:33.336Z,4.10
2023-01-11T00:00:46.308Z,4.15
2023-01-11T00:01:01.799Z,4.00
2023-01-11T00:01:16.549Z,4.47
2023-01-11T00:01:31.232Z,4.50
2023-01-11T00:01:44.120Z,4.30
2023-01-11T00:01:57.262Z,4.20
2023-01-11T00:02:11.080Z,4.20
2023-01-11T00:02:25.191Z,4.28
2023-01-11T00:02:38.046Z,4.45
2023-01-11T00:03:00.454Z,4.35
2023-01-11T00:03:13.383Z,4.22
2023-01-11T00:03:26.308Z,4.35
2023-01-11T00:03:40.270Z,4.18
2023-01-11T00:03:53.188Z,3.95
2023-01-11T00:04:08.214Z,4.10
2023-01-11T00:04:23.342Z,4.15
2023-01-11T00:04:36.233Z,4.40
2023-01-11T00:04:50.269Z,4.45
2023-01-11T00:05:04.209Z,4.43
2023-01-11T00:05:23.393Z,4.10
2023-01-11T00:05:43.158Z,4.20
2023-01-11T00:05:57.704Z,4.43
2023-01-11T00:06:11.206Z,4.20
2023-01-11T00:06:24.130Z,4.15
2023-01-11T00:07:15.835Z,4.30
2023-01-11T00:07:29.733Z,4.10
2023-01-11T00:07:44.864Z,3.87
2023-01-11T00:07:58.725Z,4.00
2023-01-11T00:08:11.828Z,4.10
2023-01-11T00:08:27.867Z,4.18
2023-01-11T00:08:40.691Z,3.97
2023-01-11T00:08:56.335Z,4.10
2023-01-11T00:09:29.045Z,4.30
2023-01-11T00:10:04.740Z,4.15
2023-01-11T00:10:18.065Z,4.03
2023-01-11T00:10:32.933Z,4.00
2023-01-11T00:10:50.813Z,4.10
2023-01-11T00:11:04.309Z,4.00
2023-01-11T00:11:18.735Z,4.15
2023-01-11T00:11:31.971Z,4.37
2023-01-11T00:11:44.896Z,4.45
2023-01-11T00:11:57.984Z,4.50
2023-01-11T00:12:14.197Z,4.28
2023-01-11T00:12:27.057Z,3.92
2023-01-11T00:12:40.042Z,3.95
2023-01-11T00:12:52.863Z,4.35
2023-01-11T00:13:05.792Z,4.37
2023-01-11T00:13:18.820Z,4.07
2023-01-11T00:13:33.149Z,4.05
2023-01-11T00:13:50.521Z,4.40
2023-01-11T00:14:08.144Z,4.30
2023-01-11T00:14:21.074Z,4.20
2023-01-11T00:14:53.822Z,4.57
2023-01-11T00:15:26.599Z,4.15
2023-01-11T00:16:05.923Z,4.25
2023-01-11T00:16:18.824Z,4.12
2023-01-11T00:16:32.563Z,4.10
2023-01-11T00:16:45.409Z,4.03
2023-01-11T00:16:59.564Z,4.00
2023-01-11T00:17:12.653Z,3.92
2023-01-11T00:17:26.464Z,4.00
2023-01-11T00:17:39.438Z,3.85
2023-01-11T00:18:12.261Z,3.95
2023-01-11T00:18:45.034Z,4.18
2023-01-11T00:18:58.933Z,4.22
2023-01-11T00:19:11.932Z,4.28
2023-01-11T00:19:25.020Z,4.20
2023-01-11T00:19:38.860Z,4.06
2023-01-11T00:19:51.725Z,3.87
2023-01-11T00:20:10.185Z,3.80
2023-01-11T00:20:42.891Z,4.22
2023-01-11T00:20:55.951Z,4.12
2023-01-11T00:21:09.086Z,4.07
2023-01-11T00:21:22.600Z,4.15
2023-01-11T00:21:55.323Z,4.10
2023-01-11T00:22:08.642Z,3.90
2023-01-11T00:22:23.729Z,3.91
2023-01-11T00:22:38.068Z,4.25
2023-01-11T00:22:52.068Z,4.46
2023-01-11T00:23:04.958Z,4.18
2023-01-11T00:23:18.373Z,4.15
2023-01-11T00:23:32.349Z,4.05
2023-01-11T00:23:48.419Z,4.18
2023-01-11T00:24:01.621Z,4.00
2023-01-11T00:24:14.466Z,3.90
2023-01-11T00:24:27.858Z,3.95
2023-01-11T00:24:40.981Z,4.12
2023-01-11T00:25:01.746Z,4.20
2023-01-11T00:25:15.001Z,4.22
2023-01-11T00:25:30.635Z,4.50
2023-01-11T00:25:43.604Z,4.37
2023-01-11T00:25:56.451Z,3.90
2023-01-11T00:26:12.070Z,3.90
2023-01-11T00:26:58.125Z,4.10
2023-01-11T00:27:13.193Z,4.18
2023-01-11T00:27:26.136Z,4.07
2023-01-11T00:27:39.007Z,4.05
2023-01-11T00:27:52.377Z,3.90
2023-01-11T00:28:05.673Z,3.90
2023-01-11T00:28:18.581Z,3.95
2023-01-11T00:28:33.159Z,4.12
2023-01-11T00:29:02.129Z,4.12
2023-01-11T00:29:15.511Z,4.15
2023-01-11T00:29:29.227Z,3.95
2023-01-11T00:29:42.075Z,3.95
2023-01-11T00:29:55.831Z,3.90
2023-01-11T00:30:09.216Z,4.07
2023-01-11T00:30:22.578Z,3.99
2023-01-11T00:30:55.338Z,3.90
2023-01-11T00:31:08.361Z,3.92
2023-01-11T00:31:21.270Z,3.97
2023-01-11T00:31:34.207Z,4.12
2023-01-11T00:31:47.140Z,4.32
2023-01-11T00:32:00.608Z,4.40
2023-01-11T00:32:13.412Z,4.00
2023-01-11T00:32:28.325Z,4.15
2023-01-11T00:32:41.307Z,4.40
2023-01-11T00:32:58.164Z,4.50
2023-01-11T00:33:11.130Z,4.45
2023-01-11T00:33:24.538Z,4.35
2023-01-11T00:33:46.534Z,4.00
2023-01-11T00:34:00.265Z,3.90
2023-01-11T00:34:33.099Z,4.32
2023-01-11T00:34:46.434Z,4.20
2023-01-11T00:34:59.705Z,4.00
2023-01-11T00:35:12.652Z,4.12
2023-01-11T00:35:26.722Z,4.30
2023-01-11T00:35:39.706Z,4.22
2023-01-11T00:35:52.689Z,3.97
2023-01-11T00:36:06.130Z,4.10
2023-01-11T00:36:20.048Z,4.20
2023-01-11T00:36:33.240Z,3.90
2023-01-11T00:36:46.373Z,3.90
2023-01-11T00:36:59.336Z,3.85
2023-01-11T00:37:12.788Z,3.80
2023-01-11T00:37:25.676Z,3.92
2023-01-11T00:37:38.927Z,3.80
2023-01-11T00:37:53.603Z,3.90
2023-01-11T00:38:51.356Z,3.90
2023-01-11T00:39:06.329Z,3.58
2023-01-11T00:39:19.564Z,3.78
2023-01-11T00:39:32.447Z,3.92
2023-01-11T00:39:45.314Z,4.03
2023-01-11T00:39:58.138Z,4.05
2023-01-11T00:40:11.837Z,4.00
2023-01-11T00:41:54.882Z,3.97
2023-01-11T00:43:17.660Z,4.13
2023-01-11T00:44:41.462Z,4.15
2023-01-11T00:45:44.248Z,4.10
2023-01-11T00:46:17.251Z,4.12
2023-01-11T00:47:21.190Z,3.87
2023-01-11T00:48:07.021Z,4.12
2023-01-11T00:48:20.979Z,4.10
2023-01-11T00:48:35.947Z,4.30
2023-01-11T00:48:48.764Z,4.10
2023-01-11T00:49:01.750Z,4.18
2023-01-11T00:49:14.967Z,4.15
2023-01-11T00:49:27.966Z,4.15
2023-01-11T00:49:41.270Z,4.32
2023-01-11T00:50:13.996Z,4.05
2023-01-11T00:50:59.576Z,4.00
2023-01-11T00:51:12.452Z,4.22
2023-01-11T00:51:27.230Z,4.20
2023-01-11T00:51:40.229Z,3.92
2023-01-11T00:51:53.651Z,3.90
2023-01-11T00:52:09.022Z,4.12
2023-01-11T00:52:22.698Z,4.10
2023-01-11T00:52:39.470Z,3.91
2023-01-11T00:52:52.353Z,3.97
2023-01-11T00:53:05.320Z,4.00
2023-01-11T00:53:19.452Z,3.92
2023-01-11T00:53:32.453Z,3.78
2023-01-11T00:53:48.466Z,3.70
2023-01-11T00:54:33.003Z,4.10
2023-01-11T00:55:06.374Z,3.95
2023-01-11T00:55:19.482Z,3.92
2023-01-11T00:55:32.880Z,3.85
2023-01-11T00:55:45.955Z,4.03
2023-01-11T00:55:58.815Z,4.40
2023-01-11T00:56:11.665Z,4.55
2023-01-11T00:56:25.242Z,4.28
2023-01-11T00:57:16.602Z,4.04
2023-01-11T00:57:29.478Z,4.20
2023-01-11T00:57:42.418Z,4.20
2023-01-11T00:58:33.895Z,4.23
2023-01-11T00:58:48.939Z,4.40
2023-01-11T00:59:02.213Z,4.20
2023-01-11T00:59:15.050Z,3.80
2023-01-11T00:59:27.927Z,3.87
2023-01-11T01:00:02.059Z,4.15
2023-01-11T01:00:15.576Z,4.20
2023-01-11T01:00:28.989Z,4.05
2023-01-11T01:00:41.871Z,3.97
2023-01-11T01:00:54.700Z,3.90
2023-01-11T01:01:27.567Z,4.20
2023-01-11T01:01:40.548Z,4.30
2023-01-11T01:01:53.644Z,4.07
2023-01-11T01:02:06.603Z,4.05
2023-01-11T01:02:19.998Z,4.00
2023-01-11T01:02:33.964Z,4.00
2023-01-11T01:02:47.328Z,4.20
2023-01-11T01:03:00.260Z,4.40
2023-01-11T01:03:13.150Z,4.03
2023-01-11T01:03:26.172Z,4.01
2023-01-11T01:03:39.035Z,4.00
2023-01-11T01:03:51.864Z,4.18
2023-01-11T01:04:04.805Z,4.35
2023-01-11T01:04:20.038Z,4.26
2023-01-11T01:04:35.659Z,4.03
2023-01-11T01:04:48.982Z,3.94
2023-01-11T01:05:01.839Z,3.83
2023-01-11T01:05:14.925Z,4.10
2023-01-11T01:05:28.195Z,4.03
2023-01-11T01:05:43.252Z,3.78
2023-01-11T01:06:05.271Z,4.07
2023-01-11T01:06:18.557Z,4.20
2023-01-11T01:06:32.768Z,3.95
2023-01-11T01:07:05.602Z,4.35
2023-01-11T01:07:18.485Z,4.32
2023-01-11T01:07:31.371Z,3.92
2023-01-11T01:07:45.464Z,3.85
2023-01-11T01:07:58.362Z,3.99
2023-01-11T01:08:11.200Z,4.06
2023-01-11T01:08:24.043Z,4.03
2023-01-11T01:08:36.860Z,4.25
2023-01-11T01:08:49.736Z,4.40
2023-01-11T01:09:02.658Z,4.22
2023-01-11T01:09:16.622Z,4.04
2023-01-11T01:09:30.841Z,4.12
2023-01-11T01:10:01.803Z,4.57
2023-01-11T01:10:17.428Z,4.40
2023-01-11T01:11:05.174Z,4.28
2023-01-11T01:11:18.012Z,4.12
2023-01-11T01:11:32.717Z,4.22
2023-01-11T01:11:46.827Z,4.31
2023-01-11T01:12:00.138Z,4.22
2023-01-11T01:12:34.016Z,4.12
2023-01-11T01:13:25.280Z,4.10
2023-01-11T01:13:57.004Z,4.30
2023-01-11T01:14:42.485Z,3.90
2023-01-11T01:14:56.634Z,3.92
2023-01-11T01:15:09.911Z,4.00
2023-01-11T01:15:43.042Z,3.92
2023-01-11T01:15:58.508Z,4.10
2023-01-11T01:16:11.567Z,4.12
2023-01-11T01:16:24.876Z,4.12
2023-01-11T01:16:38.132Z,4.20
2023-01-11T01:16:52.099Z,4.65
2023-01-11T01:17:09.288Z,4.53
2023-01-11T01:17:34.670Z,4.22
2023-01-11T01:17:48.495Z,4.30
2023-01-11T01:18:02.258Z,4.22
2023-01-11T01:18:35.036Z,4.22
2023-01-11T01:18:47.912Z,4.45
2023-01-11T01:19:00.727Z,4.47
2023-01-11T01:19:14.641Z,4.10
2023-01-11T01:19:30.219Z,4.32
2023-01-11T01:19:43.018Z,4.20
2023-01-11T01:19:56.692Z,4.35
2023-01-11T01:20:10.088Z,4.22
2023-01-11T01:20:24.039Z,4.16
2023-01-11T01:20:37.074Z,4.25
2023-01-11T01:20:50.937Z,4.12
2023-01-11T01:21:03.992Z,3.99
2023-01-11T01:21:16.922Z,4.15
2023-01-11T01:21:30.127Z,4.30
2023-01-11T01:22:02.868Z,4.03
2023-01-11T01:22:31.921Z,4.18
2023-01-11T01:22:45.229Z,4.20
2023-01-11T01:22:58.153Z,4.32
2023-01-11T01:23:11.241Z,4.28
2023-01-11T01:23:26.248Z,4.44
2023-01-11T01:24:04.020Z,4.42
2023-01-11T01:24:17.496Z,4.18
2023-01-11T01:24:33.511Z,4.15
2023-01-11T01:25:37.933Z,4.10
2023-01-11T01:25:51.217Z,3.83
2023-01-11T01:26:04.932Z,3.90
2023-01-11T01:26:17.727Z,3.97
2023-01-11T01:26:31.706Z,4.32
2023-01-11T01:26:44.994Z,4.65
2023-01-11T01:26:58.376Z,4.68
2023-01-11T01:27:20.371Z,4.40
2023-01-11T01:27:34.229Z,4.07
2023-01-11T01:27:47.125Z,4.43
2023-01-11T01:28:00.095Z,4.68
2023-01-11T01:28:15.123Z,4.32
2023-01-11T01:28:29.831Z,4.50
2023-01-11T01:28:43.005Z,4.50
2023-01-11T01:28:56.165Z,4.40
2023-01-11T01:29:29.417Z,4.00
2023-01-11T01:29:42.565Z,3.90
2023-01-11T01:30:18.511Z,4.20
2023-01-11T01:30:33.671Z,4.20
2023-01-11T01:30:50.649Z,4.10
2023-01-11T01:31:03.586Z,4.05
2023-01-11T01:31:50.967Z,4.47
2023-01-11T01:32:05.334Z,4.25
2023-01-11T01:32:38.109Z,4.10
2023-01-11T01:32:51.414Z,4.07
2023-01-11T01:33:24.582Z,4.10
2023-01-11T01:33:37.614Z,4.07
2023-01-11T01:33:50.915Z,4.32
2023-01-11T01:34:04.185Z,4.43
2023-01-11T01:34:18.066Z,4.45
2023-01-11T01:35:03.402Z,4.13
2023-01-11T01:35:16.451Z,4.20
2023-01-11T01:36:20.623Z,4.40
2023-01-11T01:36:33.533Z,4.30
2023-01-11T01:37:07.469Z,4.00
2023-01-11T01:37:21.304Z,4.26
2023-01-11T01:37:34.412Z,4.43
2023-01-11T01:37:47.307Z,4.47
2023-01-11T01:38:00.112Z,4.57
2023-01-11T01:38:41.363Z,4.30
2023-01-11T01:38:56.137Z,4.38
2023-01-11T01:40:01.463Z,4.30
2023-01-11T01:40:14.387Z,4.37
2023-01-11T01:40:27.746Z,4.44
2023-01-11T01:40:44.398Z,4.40
2023-01-11T01:41:13.724Z,4.40
2023-01-11T01:41:26.956Z,4.62
2023-01-11T01:41:39.867Z,4.68
2023-01-11T01:41:52.692Z,4.47
2023-01-11T01:42:06.253Z,4.47
2023-01-11T01:42:20.382Z,4.43
2023-01-11T01:42:38.166Z,4.55
2023-01-11T01:42:56.284Z,4.70
2023-01-11T01:44:02.302Z,4.70
2023-01-11T01:44:57.220Z,4.70
2023-01-11T01:45:36.883Z,4.60
2023-01-11T01:45:52.709Z,4.82
2023-01-11T01:46:06.079Z,4.80
2023-01-11T01:46:19.649Z,4.57
2023-01-11T01:46:33.677Z,4.14
2023-01-11T01:47:32.290Z,4.30
2023-01-11T01:48:00.957Z,4.24
2023-01-11T01:48:24.481Z,4.40
2023-01-11T01:49:13.577Z,4.18
2023-01-11T01:49:26.499Z,4.50
2023-01-11T01:49:39.720Z,4.57
2023-01-11T01:49:52.600Z,4.51
2023-01-11T01:50:25.695Z,4.40
2023-01-11T01:51:14.274Z,4.53
2023-01-11T01:51:30.846Z,4.59
2023-01-11T01:51:51.111Z,4.82
2023-01-11T01:52:17.526Z,4.20
2023-01-11T01:52:31.548Z,4.55
2023-01-11T01:52:45.491Z,4.90
2023-01-11T01:53:04.132Z,4.75
2023-01-11T01:53:28.933Z,4.60
2023-01-11T01:53:42.464Z,4.80
2023-01-11T01:53:57.795Z,4.61
2023-01-11T01:54:12.854Z,4.20
2023-01-11T01:54:30.553Z,4.30
2023-01-11T01:54:44.650Z,4.40
2023-01-11T01:54:59.147Z,4.40
2023-01-11T01:55:50.538Z,4.57
2023-01-11T01:56:06.542Z,4.75
2023-01-11T01:56:48.930Z,4.80
2023-01-11T01:57:22.757Z,4.40
2023-01-11T01:57:48.972Z,4.60
2023-01-11T01:58:03.047Z,4.55
2023-01-11T01:58:51.467Z,4.50
2023-01-11T01:59:12.774Z,4.40
2023-01-11T01:59:26.316Z,4.50
2023-01-11T01:59:39.196Z,4.26
2023-01-11T01:59:52.627Z,4.40
2023-01-11T02:00:07.277Z,4.74
2023-01-11T02:00:20.489Z,4.95
2023-01-11T02:00:33.344Z,5.18
2023-01-11T02:00:46.608Z,5.30
2023-01-11T02:01:49.460Z,4.45
2023-01-11T02:02:24.199Z,4.40
2023-01-11T02:02:52.767Z,4.70
2023-01-11T02:03:06.073Z,4.65
2023-01-11T02:03:20.908Z,4.47
2023-01-11T02:03:34.189Z,4.74
2023-01-11T02:03:49.138Z,4.96
2023-01-11T02:04:04.773Z,4.90
2023-01-11T02:04:56.374Z,4.50
2023-01-11T02:05:09.754Z,4.45
2023-01-11T02:05:23.963Z,4.72
2023-01-11T02:05:37.190Z,5.15
2023-01-11T02:05:50.091Z,5.10
2023-01-11T02:06:03.039Z,4.93
2023-01-11T02:06:48.659Z,4.78
2023-01-11T02:07:16.965Z,4.80
2023-01-11T02:07:47.758Z,4.87
2023-01-11T02:08:43.330Z,4.90
2023-01-11T02:09:02.300Z,4.90
2023-01-11T02:09:53.104Z,5.20
2023-01-11T02:10:21.521Z,4.53
2023-01-11T02:10:34.380Z,4.62
2023-01-11T02:10:47.753Z,5.06
2023-01-11T02:11:03.606Z,5.12
2023-01-11T02:11:56.258Z,5.10
2023-01-11T02:12:09.169Z,5.18
2023-01-11T02:12:22.695Z,5.26
2023-01-11T02:12:38.678Z,5.06
2023-01-11T02:13:02.003Z,4.95
2023-01-11T02:13:27.581Z,4.80
2023-01-11T02:13:46.212Z,4.78
2023-01-11T02:14:51.708Z,4.83
2023-01-11T02:15:04.927Z,4.87
2023-01-11T02:15:19.183Z,4.86
2023-01-11T02:15:33.028Z,4.90
2023-01-11T02:15:46.807Z,4.95
2023-01-11T02:16:09.062Z,5.10
2023-01-11T02:16:35.468Z,5.02
2023-01-11T02:16:48.392Z,5.07
2023-01-11T02:17:02.460Z,4.93
2023-01-11T02:17:32.116Z,5.18
2023-01-11T02:17:44.909Z,5.35
2023-01-11T02:17:57.757Z,5.30
2023-01-11T02:18:12.746Z,5.10
2023-01-11T02:18:26.294Z,5.20
2023-01-11T02:18:39.490Z,5.21
2023-01-11T02:19:55.441Z,4.87
2023-01-11T02:20:35.918Z,4.97
2023-01-11T02:21:33.179Z,4.90
2023-01-11T02:22:26.531Z,5.10
2023-01-11T02:23:50.921Z,4.87
2023-01-11T02:24:29.078Z,5.07
2023-01-11T02:25:27.560Z,4.83
2023-01-11T02:26:18.491Z,4.87
2023-01-11T02:26:45.593Z,5.00
2023-01-11T02:28:12.402Z,4.83
2023-01-11T02:29:07.237Z,5.50
2023-01-11T02:29:45.611Z,5.07
2023-01-11T02:30:16.774Z,5.27
2023-01-11T02:30:51.351Z,4.70
2023-01-11T02:31:26.495Z,5.52
2023-01-11T02:32:48.731Z,5.10
2023-01-11T02:33:52.039Z,5.07
2023-01-11T02:35:29.634Z,5.20
2023-01-11T02:36:40.512Z,5.24
2023-01-11T02:37:43.450Z,4.75
2023-01-11T02:38:29.897Z,5.10
2023-01-11T02:38:55.813Z,5.20
2023-01-11T02:39:38.493Z,5.06
2023-01-11T02:40:39.003Z,5.56
2023-01-11T02:42:17.043Z,5.00
2023-01-11T02:42:54.435Z,5.03
2023-01-11T02:44:23.905Z,4.90
2023-01-11T02:45:00.784Z,5.15
2023-01-11T02:45:59.101Z,5.07
2023-01-11T02:46:38.480Z,4.93
2023-01-11T02:46:56.835Z,5.00
2023-01-11T02:47:48.449Z,4.90
2023-01-11T02:49:07.059Z,5.00
2023-01-11T02:49:50.450Z,5.00
2023-01-11T02:50:10.359Z,4.97
2023-01-11T02:50:58.361Z,5.37
2023-01-11T02:51:32.830Z,5.17
2023-01-11T02:52:22.284Z,5.04
2023-01-11T02:53:06.233Z,5.03
2023-01-11T02:53:28.019Z,4.83
2023-01-11T02:53:44.012Z,5.00
2023-01-11T02:54:02.664Z,5.00
2023-01-11T02:54:17.323Z,5.00
2023-01-11T02:54:30.399Z,4.96
2023-01-11T02:54:45.914Z,5.16
2023-01-11T02:54:58.803Z,5.22
2023-01-11T02:55:14.272Z,5.04
2023-01-11T02:55:34.407Z,5.12
2023-01-11T02:55:49.627Z,4.90
2023-01-11T02:56:06.252Z,5.06
2023-01-11T02:56:21.535Z,5.55
2023-01-11T02:56:37.550Z,5.26
2023-01-11T02:56:55.276Z,4.87
2023-01-11T02:57:10.316Z,4.90
2023-01-11T02:57:23.391Z,4.97
2023-01-11T02:57:39.252Z,5.18
2023-01-11T02:57:53.365Z,5.20
2023-01-11T02:58:08.597Z,4.96
2023-01-11T02:58:22.279Z,5.24
2023-01-11T02:58:40.713Z,5.28
2023-01-11T02:58:54.262Z,5.01
2023-01-11T02:59:58.377Z,5.20
2023-01-11T03:00:49.673Z,4.62
2023-01-11T03:01:02.530Z,4.68
2023-01-11T03:01:22.675Z,4.70
2023-01-11T03:01:47.134Z,4.75
2023-01-11T03:02:00.622Z,5.22
2023-01-11T03:02:18.125Z,4.85
2023-01-11T03:02:31.306Z,4.80
2023-01-11T03:02:44.295Z,4.93
2023-01-11T03:03:14.591Z,4.97
2023-01-11T03:03:30.327Z,5.00
2023-01-11T03:03:43.598Z,4.87
2023-01-11T03:04:36.829Z,4.87
2023-01-11T03:04:49.712Z,4.80
2023-01-11T03:05:02.579Z,4.55
2023-01-11T03:05:16.480Z,4.51
2023-01-11T03:05:31.477Z,4.94
2023-01-11T03:05:52.455Z,4.93
2023-01-11T03:06:06.733Z,4.75
2023-01-11T03:06:26.243Z,4.93
2023-01-11T03:06:41.594Z,4.97
2023-01-11T03:08:42.659Z,5.35
2023-01-11T03:09:07.310Z,5.30
2023-01-11T03:46:56.669Z,5.30
2023-01-11T03:47:12.712Z,5.30
2023-01-11T03:47:26.068Z,5.05
2023-01-11T03:47:39.184Z,5.05
2023-01-11T03:47:52.120Z,5.07
2023-01-11T03:48:05.642Z,5.15
2023-01-11T03:49:01.466Z,5.10
2023-01-11T03:49:19.037Z,5.52
2023-01-11T03:49:34.359Z,5.45
2023-01-11T03:49:50.055Z,5.30
2023-01-11T03:50:05.166Z,5.50
2023-01-11T03:50:18.690Z,5.27
2023-01-11T03:50:32.838Z,5.00
2023-01-11T03:50:46.184Z,4.75
2023-01-11T03:50:59.311Z,4.97
2023-01-11T03:51:15.268Z,5.04
2023-01-11T03:51:31.598Z,5.12
2023-01-11T03:51:45.120Z,4.92
2023-01-11T03:51:59.055Z,4.90
2023-01-11T03:52:34.435Z,5.47
2023-01-11T03:53:20.806Z,5.37
2023-01-11T03:53:36.144Z,5.36
2023-01-11T03:53:49.634Z,5.05
2023-01-11T03:54:03.964Z,4.80
2023-01-11T03:54:23.536Z,4.97
2023-01-11T03:54:38.661Z,5.30
2023-01-11T03:54:52.708Z,5.22
2023-01-11T03:55:08.258Z,5.18
2023-01-11T03:55:21.140Z,5.10
2023-01-11T03:56:10.636Z,4.90
2023-01-11T03:57:13.273Z,4.82
2023-01-11T03:57:33.961Z,5.00
2023-01-11T03:58:25.287Z,5.20
2023-01-11T03:58:39.365Z,5.10
2023-01-11T03:58:52.378Z,4.97
2023-01-11T03:59:38.955Z,5.37
2023-01-11T04:00:44.300Z,5.30
2023-01-11T04:01:14.985Z,5.13
2023-01-11T04:01:28.906Z,5.39
2023-01-11T04:01:41.753Z,5.15
2023-01-11T04:01:55.153Z,4.93
2023-01-11T04:02:34.571Z,5.20
2023-01-11T04:03:01.673Z,5.35
2023-01-11T04:03:14.855Z,5.00
2023-01-11T04:03:28.333Z,4.95
2023-01-11T04:03:42.180Z,5.05
2023-01-11T04:03:56.116Z,4.97
2023-01-11T04:04:09.162Z,5.07
2023-01-11T04:04:23.084Z,5.12
2023-01-11T04:04:36.494Z,5.20
2023-01-11T04:05:23.084Z,5.17
2023-01-11T04:05:59.417Z,5.40
2023-01-11T04:06:13.319Z,5.06
2023-01-11T04:06:59.262Z,4.87
2023-01-11T04:07:12.369Z,4.90
2023-01-11T04:07:25.235Z,5.12
2023-01-11T04:08:11.566Z,5.07
2023-01-11T04:08:27.025Z,4.95
2023-01-11T04:08:41.832Z,4.85
2023-01-11T04:08:54.710Z,5.20
2023-01-11T04:09:07.593Z,5.30
2023-01-11T04:09:20.430Z,4.82
2023-01-11T04:09:33.307Z,4.80
2023-01-11T04:10:06.768Z,5.18
2023-01-11T04:10:19.660Z,5.00
2023-01-11T04:10:33.613Z,5.00
2023-01-11T04:10:46.523Z,4.80
2023-01-11T04:10:59.860Z,4.37
2023-01-11T04:11:13.452Z,4.78
2023-01-11T04:11:26.336Z,5.30
2023-01-11T04:12:11.616Z,5.05
2023-01-11T04:13:15.219Z,4.90
2023-01-11T04:13:28.076Z,5.15
2023-01-11T04:13:41.154Z,5.00
2023-01-11T04:13:54.013Z,5.10
2023-01-11T04:14:06.839Z,5.03
2023-01-11T04:14:20.050Z,5.07
2023-01-11T04:14:32.881Z,4.87
2023-01-11T04:14:46.119Z,4.90
2023-01-11T04:14:59.018Z,4.95
2023-01-11T04:15:47.300Z,4.88
2023-01-11T04:16:00.915Z,4.62
2023-01-11T04:16:15.772Z,4.66
2023-01-11T04:16:28.768Z,4.93
2023-01-11T04:16:59.637Z,4.95
2023-01-11T04:17:12.488Z,4.70
2023-01-11T04:17:25.684Z,4.65
2023-01-11T04:17:39.233Z,4.70
2023-01-11T04:17:52.462Z,4.70
2023-01-11T04:18:06.007Z,4.82
2023-01-11T04:18:29.509Z,4.80
2023-01-11T04:18:42.383Z,4.90
2023-01-11T04:18:55.282Z,5.10
2023-01-11T04:19:08.412Z,5.05
2023-01-11T04:19:25.183Z,4.78
2023-01-11T04:19:57.951Z,4.80
2023-01-11T04:20:11.665Z,4.82
2023-01-11T04:20:25.531Z,4.81
2023-01-11T04:21:29.871Z,4.80
2023-01-11T04:21:43.321Z,4.65
2023-01-11T04:21:57.069Z,4.80
2023-01-11T04:22:09.981Z,4.72
2023-01-11T04:22:56.062Z,4.80
2023-01-11T04:23:10.439Z,4.85
2023-01-11T04:23:23.431Z,4.70
2023-01-11T04:23:36.239Z,4.70
2023-01-11T04:23:49.149Z,4.80
2023-01-11T04:24:02.184Z,4.95
2023-01-11T04:24:15.296Z,5.05
2023-01-11T04:25:00.965Z,5.06
2023-01-11T04:25:13.864Z,5.00
2023-01-11T04:25:26.986Z,5.22
2023-01-11T04:25:40.947Z,5.22
2023-01-11T04:25:54.014Z,4.95
2023-01-11T04:26:07.035Z,4.68
2023-01-11T04:26:19.951Z,4.75
2023-01-11T04:26:33.351Z,4.90
2023-01-11T04:26:46.235Z,4.95
2023-01-11T04:26:59.204Z,4.90
2023-01-11T04:27:12.092Z,4.93
2023-01-11T04:27:46.454Z,5.17
2023-01-11T04:27:59.382Z,4.95
2023-01-11T04:28:12.206Z,4.75
2023-01-11T04:28:25.049Z,4.80
2023-01-11T04:28:38.334Z,4.90
2023-01-11T04:28:54.103Z,4.87
2023-01-11T04:29:07.493Z,4.95
2023-01-11T04:29:20.314Z,4.90
2023-01-11T04:29:33.164Z,4.75
2023-01-11T04:29:46.014Z,4.60
2023-01-11T04:29:58.875Z,4.68
2023-01-11T04:30:12.063Z,4.82
2023-01-11T04:30:59.437Z,4.70
2023-01-11T04:31:12.685Z,4.79
2023-01-11T04:31:58.391Z,4.90
2023-01-11T04:32:11.336Z,5.12
2023-01-11T04:32:24.168Z,4.93
2023-01-11T04:32:37.031Z,4.68
2023-01-11T04:32:50.267Z,4.65
2023-01-11T04:33:03.401Z,4.62
2023-01-11T04:33:16.706Z,4.78
2023-01-11T04:34:01.210Z,4.93
2023-01-11T04:34:15.974Z,5.10
2023-01-11T04:34:29.727Z,5.18
2023-01-11T04:34:42.649Z,5.18
2023-01-11T04:34:55.464Z,5.20
2023-01-11T04:35:08.924Z,5.03
2023-01-11T04:35:21.836Z,4.95
2023-01-11T04:35:35.178Z,4.90
2023-01-11T04:35:49.980Z,5.18
2023-01-11T04:36:11.672Z,5.32
2023-01-11T04:36:58.996Z,4.93
2023-01-11T04:37:12.138Z,4.93
2023-01-11T04:37:25.019Z,5.07
2023-01-11T04:37:38.178Z,5.02
2023-01-11T04:37:55.828Z,5.00
2023-01-11T04:38:08.713Z,4.93
2023-01-11T04:38:27.238Z,4.82
2023-01-11T04:38:41.249Z,4.90
2023-01-11T04:38:54.179Z,5.10
2023-01-11T04:39:10.602Z,5.00
2023-01-11T04:39:23.669Z,5.04
2023-01-11T04:39:36.626Z,5.40
2023-01-11T04:39:49.812Z,5.12
2023-01-11T04:40:02.631Z,4.90
2023-01-11T04:40:16.200Z,4.80
2023-01-11T04:40:33.650Z,5.20
2023-01-11T04:40:48.050Z,5.28
2023-01-11T04:41:21.109Z,4.87
2023-01-11T04:41:54.005Z,4.90
2023-01-11T04:42:19.221Z,4.97
2023-01-11T04:42:32.492Z,5.20
2023-01-11T04:42:46.601Z,5.00
2023-01-11T04:43:02.276Z,4.93
2023-01-11T04:43:15.200Z,5.10
2023-01-11T04:43:47.959Z,5.05
2023-01-11T04:44:05.797Z,5.10
2023-01-11T04:44:18.960Z,5.00
2023-01-11T04:44:31.800Z,4.90
2023-01-11T04:44:49.161Z,4.97
2023-01-11T04:45:05.428Z,5.03
2023-01-11T04:45:58.750Z,5.00
2023-01-11T04:46:25.146Z,4.50
2023-01-11T04:46:38.592Z,5.10
2023-01-11T04:47:09.034Z,4.78
2023-01-11T04:47:22.745Z,4.70
2023-01-11T04:47:56.617Z,4.87
2023-01-11T04:48:57.939Z,4.93
2023-01-11T04:49:11.126Z,4.85
2023-01-11T04:49:24.043Z,4.97
2023-01-11T04:49:38.760Z,4.85
2023-01-11T04:49:51.642Z,4.82
2023-01-11T04:50:05.211Z,4.68
2023-01-11T04:50:18.600Z,4.50
2023-01-11T04:50:31.720Z,4.60
2023-01-11T04:50:44.636Z,4.70
2023-01-11T04:51:02.023Z,4.75
2023-01-11T04:51:16.779Z,4.97
2023-01-11T04:51:29.870Z,5.10
2023-01-11T04:51:42.755Z,5.22
2023-01-11T04:51:57.686Z,4.78
2023-01-11T04:52:11.892Z,4.50
2023-01-11T04:52:25.133Z,4.70
2023-01-11T04:52:38.105Z,4.85
2023-01-11T04:52:54.068Z,4.87
2023-01-11T04:53:07.800Z,4.78
2023-01-11T04:53:20.639Z,4.80
2023-01-11T04:53:33.730Z,5.03
2023-01-11T04:53:49.320Z,5.25
2023-01-11T04:54:02.472Z,5.00
2023-01-11T04:54:18.471Z,4.70
2023-01-11T04:54:31.351Z,4.81
2023-01-11T04:54:44.477Z,5.18
2023-01-11T04:54:57.799Z,5.05
2023-01-11T04:55:10.672Z,5.03
2023-01-11T04:55:25.605Z,4.93
2023-01-11T04:55:38.940Z,4.97
2023-01-11T04:55:53.634Z,4.80
2023-01-11T04:56:26.447Z,4.60
2023-01-11T04:56:39.380Z,4.95
2023-01-11T04:56:53.210Z,4.96
2023-01-11T04:57:06.269Z,5.00
2023-01-11T04:57:20.235Z,4.96
2023-01-11T04:57:34.457Z,5.00
2023-01-11T04:57:47.296Z,4.65
2023-01-11T04:58:00.367Z,4.60
2023-01-11T04:58:13.199Z,4.68
2023-01-11T04:58:29.756Z,4.61
2023-01-11T04:59:02.490Z,5.10
2023-01-11T04:59:16.355Z,5.25
2023-01-11T04:59:29.194Z,5.00
2023-01-11T04:59:42.037Z,4.80
2023-01-11T04:59:55.237Z,5.10
2023-01-11T05:00:40.678Z,4.90
2023-01-11T05:01:30.378Z,4.62
2023-01-11T05:01:47.301Z,4.85
2023-01-11T05:02:00.578Z,4.98
2023-01-11T05:02:14.100Z,4.93
2023-01-11T05:03:00.234Z,5.03
2023-01-11T05:03:13.050Z,5.10
2023-01-11T05:03:25.977Z,5.05
2023-01-11T05:03:38.884Z,5.03
2023-01-11T05:04:26.304Z,4.93
2023-01-11T05:04:39.234Z,4.87
2023-01-11T05:04:52.641Z,4.82
2023-01-11T05:05:06.408Z,4.75
2023-01-11T05:05:20.266Z,4.78
2023-01-11T05:05:34.096Z,4.75
2023-01-11T05:06:19.833Z,4.70
2023-01-11T05:06:33.764Z,4.70
2023-01-11T05:06:46.663Z,4.95
2023-01-11T05:07:00.085Z,5.00
2023-01-11T05:07:30.429Z,5.18
2023-01-11T05:08:16.400Z,4.67
2023-01-11T05:08:29.630Z,5.03
2023-01-11T05:08:46.217Z,5.25
2023-01-11T05:08:59.119Z,5.00
2023-01-11T05:09:29.051Z,4.78
2023-01-11T05:10:05.768Z,4.82
2023-01-11T05:10:21.087Z,4.99
2023-01-11T05:10:34.882Z,4.90
2023-01-11T05:10:54.883Z,4.79
2023-01-11T05:11:24.113Z,4.90
2023-01-11T05:11:37.913Z,4.90
2023-01-11T05:11:50.729Z,4.68
2023-01-11T05:12:03.726Z,4.75
2023-01-11T05:12:16.647Z,4.90
2023-01-11T05:12:29.478Z,5.00
2023-01-11T05:12:42.308Z,4.78
2023-01-11T05:12:55.671Z,4.70
2023-01-11T05:13:08.569Z,4.80
2023-01-11T05:13:41.498Z,4.90
2023-01-11T05:13:54.367Z,4.93
2023-01-11T05:14:08.031Z,4.95
2023-01-11T05:14:21.828Z,4.75
2023-01-11T05:14:34.816Z,4.70
2023-01-11T05:14:47.729Z,4.60
2023-01-11T05:15:00.557Z,4.68
2023-01-11T05:15:34.833Z,5.00
2023-01-11T05:15:49.589Z,5.22
2023-01-11T05:16:02.504Z,5.40
2023-01-11T05:16:17.819Z,5.20
2023-01-11T05:16:30.975Z,4.95
2023-01-11T05:16:46.419Z,4.90
2023-01-11T05:16:59.351Z,4.59
2023-01-11T05:17:15.811Z,4.28
2023-01-11T05:17:28.727Z,4.29
2023-01-11T05:17:44.122Z,4.57
2023-01-11T05:17:57.793Z,4.95
2023-01-11T05:18:15.036Z,4.84
2023-01-11T05:18:28.827Z,4.60
2023-01-11T05:18:42.519Z,4.62
2023-01-11T05:18:57.669Z,4.80
2023-01-11T05:19:11.227Z,4.81